sensor_id;sensor_type;location;lat;lon;timestamp;temperature;humidity
56861;DHT22;42744;51.094;3.490;2022-10-19T00:01:52;11.10;99.90
56861;DHT22;42744;51.094;3.490;2022-10-19T00:04:18;11.10;99.90
56861;DHT22;42744;51.094;3.490;2022-10-19T00:06:44;11.10;99.90
56861;DHT22;42744;51.094;3.490;2022-10-19T00:09:16;11.10;99.90
56861;DHT22;42744;51.094;3.490;2022-10-19T00:11:45;11.10;99.90
56861;DHT22;42744;51.094;3.490;2022-10-19T00:14:17;11.10;99.90
56861;DHT22;42744;51.094;3.490;2022-10-19T00:16:44;11.00;99.90
56861;DHT22;42744;51.094;3.490;2022-10-19T00:19:14;10.90;99.90
56861;DHT22;42744;51.094;3.490;2022-10-19T00:21:41;10.90;99.90
56861;DHT22;42744;51.094;3.490;2022-10-19T00:24:07;10.90;99.90
56861;DHT22;42744;51.094;3.490;2022-10-19T00:26:33;10.90;99.90
56861;DHT22;42744;51.094;3.490;2022-10-19T00:28:59;11.00;99.90
56861;DHT22;42744;51.094;3.490;2022-10-19T00:31:26;10.90;99.90
56861;DHT22;42744;51.094;3.490;2022-10-19T00:33:52;10.90;99.90
56861;DHT22;42744;51.094;3.490;2022-10-19T00:36:28;10.90;99.90
56861;DHT22;42744;51.094;3.490;2022-10-19T00:38:55;10.90;99.90
56861;DHT22;42744;51.094;3.490;2022-10-19T00:41:23;10.80;99.90
56861;DHT22;42744;51.094;3.490;2022-10-19T00:46:20;10.80;99.90
56861;DHT22;42744;51.094;3.490;2022-10-19T00:48:47;10.70;99.90
56861;DHT22;42744;51.094;3.490;2022-10-19T00:51:13;10.70;99.90
56861;DHT22;42744;51.094;3.490;2022-10-19T00:53:40;10.70;99.90
56861;DHT22;42744;51.094;3.490;2022-10-19T00:56:10;10.70;99.90
56861;DHT22;42744;51.094;3.490;2022-10-19T00:58:37;10.60;99.90
56861;DHT22;42744;51.094;3.490;2022-10-19T01:01:05;10.60;99.90
56861;DHT22;42744;51.094;3.490;2022-10-19T01:03:33;10.60;99.90
56861;DHT22;42744;51.094;3.490;2022-10-19T01:06:00;10.60;99.90
56861;DHT22;42744;51.094;3.490;2022-10-19T01:08:26;10.60;99.90
56861;DHT22;42744;51.094;3.490;2022-10-19T01:11:12;10.60;99.90
56861;DHT22;42744;51.094;3.490;2022-10-19T01:14:11;10.60;99.90
56861;DHT22;42744;51.094;3.490;2022-10-19T01:16:53;10.60;99.90
56861;DHT22;42744;51.094;3.490;2022-10-19T01:22:13;10.60;99.90
56861;DHT22;42744;51.094;3.490;2022-10-19T01:24:58;10.60;99.90
56861;DHT22;42744;51.094;3.490;2022-10-19T01:27:40;10.60;99.90
56861;DHT22;42744;51.094;3.490;2022-10-19T01:30:12;10.60;99.90
56861;DHT22;42744;51.094;3.490;2022-10-19T01:33:00;10.60;99.90
56861;DHT22;42744;51.094;3.490;2022-10-19T01:36:01;10.60;99.90
56861;DHT22;42744;51.094;3.490;2022-10-19T01:38:58;10.70;99.90
56861;DHT22;42744;51.094;3.490;2022-10-19T01:44:28;10.70;99.90
56861;DHT22;42744;51.094;3.490;2022-10-19T01:47:00;10.70;99.90
56861;DHT22;42744;51.094;3.490;2022-10-19T01:52:06;10.70;99.90
56861;DHT22;42744;51.094;3.490;2022-10-19T01:54:37;10.60;99.90
56861;DHT22;42744;51.094;3.490;2022-10-19T01:57:06;10.70;99.90
56861;DHT22;42744;51.094;3.490;2022-10-19T01:59:34;10.70;99.90
56861;DHT22;42744;51.094;3.490;2022-10-19T02:02:05;10.70;99.90
56861;DHT22;42744;51.094;3.490;2022-10-19T02:04:32;10.70;99.90
56861;DHT22;42744;51.094;3.490;2022-10-19T02:07:00;10.70;99.90
56861;DHT22;42744;51.094;3.490;2022-10-19T02:09:26;10.70;99.90
56861;DHT22;42744;51.094;3.490;2022-10-19T02:11:59;10.70;99.90
56861;DHT22;42744;51.094;3.490;2022-10-19T02:14:31;10.70;99.90
56861;DHT22;42744;51.094;3.490;2022-10-19T02:17:30;10.70;99.90
56861;DHT22;42744;51.094;3.490;2022-10-19T02:19:57;10.70;99.90
56861;DHT22;42744;51.094;3.490;2022-10-19T02:22:24;10.70;99.90
56861;DHT22;42744;51.094;3.490;2022-10-19T02:24:50;10.70;99.90
56861;DHT22;42744;51.094;3.490;2022-10-19T02:27:16;10.70;99.90
56861;DHT22;42744;51.094;3.490;2022-10-19T02:29:42;10.70;99.90
56861;DHT22;42744;51.094;3.490;2022-10-19T02:32:08;10.70;99.90
56861;DHT22;42744;51.094;3.490;2022-10-19T02:34:35;10.70;99.90
56861;DHT22;42744;51.094;3.490;2022-10-19T02:37:02;10.70;99.90
56861;DHT22;42744;51.094;3.490;2022-10-19T02:39:28;10.70;99.90
56861;DHT22;42744;51.094;3.490;2022-10-19T02:42:02;10.70;99.90
56861;DHT22;42744;51.094;3.490;2022-10-19T02:44:56;10.70;99.90
56861;DHT22;42744;51.094;3.490;2022-10-19T02:47:30;10.60;99.90
56861;DHT22;42744;51.094;3.490;2022-10-19T02:49:58;10.60;99.90
56861;DHT22;42744;51.094;3.490;2022-10-19T02:52:24;10.60;99.90
56861;DHT22;42744;51.094;3.490;2022-10-19T02:54:50;10.60;99.90
56861;DHT22;42744;51.094;3.490;2022-10-19T02:57:20;10.60;99.90
56861;DHT22;42744;51.094;3.490;2022-10-19T02:59:46;10.60;99.90
56861;DHT22;42744;51.094;3.490;2022-10-19T03:02:14;10.60;99.90
56861;DHT22;42744;51.094;3.490;2022-10-19T03:04:40;10.60;99.90
56861;DHT22;42744;51.094;3.490;2022-10-19T03:07:08;10.60;99.90
56861;DHT22;42744;51.094;3.490;2022-10-19T03:09:35;10.60;99.90
56861;DHT22;42744;51.094;3.490;2022-10-19T03:12:01;10.60;99.90
56861;DHT22;42744;51.094;3.490;2022-10-19T03:14:27;10.60;99.90
56861;DHT22;42744;51.094;3.490;2022-10-19T03:16:53;10.60;99.90
56861;DHT22;42744;51.094;3.490;2022-10-19T03:19:19;10.60;99.90
56861;DHT22;42744;51.094;3.490;2022-10-19T03:21:45;10.60;99.90
56861;DHT22;42744;51.094;3.490;2022-10-19T03:24:11;10.60;99.90
56861;DHT22;42744;51.094;3.490;2022-10-19T03:26:37;10.60;99.90
56861;DHT22;42744;51.094;3.490;2022-10-19T03:29:03;10.60;99.90
56861;DHT22;42744;51.094;3.490;2022-10-19T03:31:29;10.60;99.90
56861;DHT22;42744;51.094;3.490;2022-10-19T03:33:56;10.60;99.90
56861;DHT22;42744;51.094;3.490;2022-10-19T03:36:26;10.60;99.90
56861;DHT22;42744;51.094;3.490;2022-10-19T03:38:55;10.60;99.90
56861;DHT22;42744;51.094;3.490;2022-10-19T03:41:26;10.50;99.90
56861;DHT22;42744;51.094;3.490;2022-10-19T03:43:52;10.50;99.90
56861;DHT22;42744;51.094;3.490;2022-10-19T03:46:19;10.50;99.90
56861;DHT22;42744;51.094;3.490;2022-10-19T03:48:45;10.50;99.90
56861;DHT22;42744;51.094;3.490;2022-10-19T03:51:15;10.50;99.90
56861;DHT22;42744;51.094;3.490;2022-10-19T03:53:41;10.50;99.90
56861;DHT22;42744;51.094;3.490;2022-10-19T03:56:14;10.50;99.90
56861;DHT22;42744;51.094;3.490;2022-10-19T03:58:41;10.50;99.90
56861;DHT22;42744;51.094;3.490;2022-10-19T04:01:16;10.50;99.90
56861;DHT22;42744;51.094;3.490;2022-10-19T04:03:43;10.50;99.90
56861;DHT22;42744;51.094;3.490;2022-10-19T04:06:12;10.50;99.90
56861;DHT22;42744;51.094;3.490;2022-10-19T04:08:38;10.50;99.90
56861;DHT22;42744;51.094;3.490;2022-10-19T04:11:09;10.40;99.90
56861;DHT22;42744;51.094;3.490;2022-10-19T04:13:36;10.40;99.90
56861;DHT22;42744;51.094;3.490;2022-10-19T04:16:02;10.40;99.90
56861;DHT22;42744;51.094;3.490;2022-10-19T04:18:28;10.40;99.90
56861;DHT22;42744;51.094;3.490;2022-10-19T04:20:55;10.40;99.90
56861;DHT22;42744;51.094;3.490;2022-10-19T04:23:22;10.40;99.90
56861;DHT22;42744;51.094;3.490;2022-10-19T04:25:48;10.40;99.90
56861;DHT22;42744;51.094;3.490;2022-10-19T04:28:14;10.40;99.90
56861;DHT22;42744;51.094;3.490;2022-10-19T04:30:40;10.40;99.90
56861;DHT22;42744;51.094;3.490;2022-10-19T04:33:06;10.40;99.90
56861;DHT22;42744;51.094;3.490;2022-10-19T04:35:31;10.40;99.90
56861;DHT22;42744;51.094;3.490;2022-10-19T04:37:58;10.30;99.90
56861;DHT22;42744;51.094;3.490;2022-10-19T04:40:24;10.30;99.90
56861;DHT22;42744;51.094;3.490;2022-10-19T04:42:50;10.30;99.90
56861;DHT22;42744;51.094;3.490;2022-10-19T04:45:16;10.40;99.90
56861;DHT22;42744;51.094;3.490;2022-10-19T04:47:42;10.30;99.90
56861;DHT22;42744;51.094;3.490;2022-10-19T04:50:08;10.30;99.90
56861;DHT22;42744;51.094;3.490;2022-10-19T04:52:34;10.30;99.90
56861;DHT22;42744;51.094;3.490;2022-10-19T04:55:00;10.30;99.90
56861;DHT22;42744;51.094;3.490;2022-10-19T04:57:26;10.30;99.90
56861;DHT22;42744;51.094;3.490;2022-10-19T04:59:53;10.30;99.90
56861;DHT22;42744;51.094;3.490;2022-10-19T05:02:19;10.20;99.90
56861;DHT22;42744;51.094;3.490;2022-10-19T05:04:47;10.30;99.90
56861;DHT22;42744;51.094;3.490;2022-10-19T05:07:13;10.20;99.90
56861;DHT22;42744;51.094;3.490;2022-10-19T05:09:39;10.20;99.90
56861;DHT22;42744;51.094;3.490;2022-10-19T05:12:05;10.20;99.90
56861;DHT22;42744;51.094;3.490;2022-10-19T05:14:32;10.20;99.90
56861;DHT22;42744;51.094;3.490;2022-10-19T05:16:58;10.20;99.90
56861;DHT22;42744;51.094;3.490;2022-10-19T05:19:24;10.20;99.90
56861;DHT22;42744;51.094;3.490;2022-10-19T05:21:50;10.10;99.90
56861;DHT22;42744;51.094;3.490;2022-10-19T05:24:16;10.10;99.90
56861;DHT22;42744;51.094;3.490;2022-10-19T05:26:42;10.10;99.90
56861;DHT22;42744;51.094;3.490;2022-10-19T05:29:12;10.00;99.90
56861;DHT22;42744;51.094;3.490;2022-10-19T05:31:39;10.10;99.90
56861;DHT22;42744;51.094;3.490;2022-10-19T05:34:04;10.10;99.90
56861;DHT22;42744;51.094;3.490;2022-10-19T05:36:36;10.10;99.90
56861;DHT22;42744;51.094;3.490;2022-10-19T05:39:06;10.00;99.90
56861;DHT22;42744;51.094;3.490;2022-10-19T05:41:32;10.00;99.90
56861;DHT22;42744;51.094;3.490;2022-10-19T05:44:00;10.00;99.90
56861;DHT22;42744;51.094;3.490;2022-10-19T05:46:28;10.00;99.90
56861;DHT22;42744;51.094;3.490;2022-10-19T05:48:55;10.00;99.90
56861;DHT22;42744;51.094;3.490;2022-10-19T05:51:22;10.00;99.90
56861;DHT22;42744;51.094;3.490;2022-10-19T05:53:49;10.00;99.90
56861;DHT22;42744;51.094;3.490;2022-10-19T05:56:27;10.00;99.90
56861;DHT22;42744;51.094;3.490;2022-10-19T05:58:55;10.00;99.90
56861;DHT22;42744;51.094;3.490;2022-10-19T06:01:21;9.90;99.90
56861;DHT22;42744;51.094;3.490;2022-10-19T06:03:51;9.90;99.90
56861;DHT22;42744;51.094;3.490;2022-10-19T06:06:17;9.90;99.90
56861;DHT22;42744;51.094;3.490;2022-10-19T06:08:44;9.90;99.90
56861;DHT22;42744;51.094;3.490;2022-10-19T06:11:15;9.90;99.90
56861;DHT22;42744;51.094;3.490;2022-10-19T06:13:42;9.80;99.90
56861;DHT22;42744;51.094;3.490;2022-10-19T06:16:13;9.80;99.90
56861;DHT22;42744;51.094;3.490;2022-10-19T06:18:40;9.80;99.90
56861;DHT22;42744;51.094;3.490;2022-10-19T06:21:11;9.80;99.90
56861;DHT22;42744;51.094;3.490;2022-10-19T06:23:37;9.80;99.90
56861;DHT22;42744;51.094;3.490;2022-10-19T06:26:05;9.80;99.90
56861;DHT22;42744;51.094;3.490;2022-10-19T06:28:32;9.80;99.90
56861;DHT22;42744;51.094;3.490;2022-10-19T06:30:58;9.70;99.90
56861;DHT22;42744;51.094;3.490;2022-10-19T06:33:25;9.70;99.90
56861;DHT22;42744;51.094;3.490;2022-10-19T06:35:52;9.70;99.90
56861;DHT22;42744;51.094;3.490;2022-10-19T06:38:17;9.80;99.90
56861;DHT22;42744;51.094;3.490;2022-10-19T06:40:43;9.80;99.90
56861;DHT22;42744;51.094;3.490;2022-10-19T06:43:09;9.80;99.90
56861;DHT22;42744;51.094;3.490;2022-10-19T06:45:38;9.80;99.90
56861;DHT22;42744;51.094;3.490;2022-10-19T06:48:05;9.80;99.90
56861;DHT22;42744;51.094;3.490;2022-10-19T06:50:32;9.90;99.90
56861;DHT22;42744;51.094;3.490;2022-10-19T06:52:58;9.90;99.90
56861;DHT22;42744;51.094;3.490;2022-10-19T06:55:25;9.90;99.90
56861;DHT22;42744;51.094;3.490;2022-10-19T06:57:50;9.90;99.90
56861;DHT22;42744;51.094;3.490;2022-10-19T07:00:16;9.90;99.90
56861;DHT22;42744;51.094;3.490;2022-10-19T07:02:42;10.00;99.90
56861;DHT22;42744;51.094;3.490;2022-10-19T07:05:09;10.00;99.90
56861;DHT22;42744;51.094;3.490;2022-10-19T07:07:34;10.00;99.90
56861;DHT22;42744;51.094;3.490;2022-10-19T07:10:01;10.10;99.90
56861;DHT22;42744;51.094;3.490;2022-10-19T07:12:27;10.10;99.90
56861;DHT22;42744;51.094;3.490;2022-10-19T07:14:53;10.10;99.90
56861;DHT22;42744;51.094;3.490;2022-10-19T07:17:20;10.20;99.90
56861;DHT22;42744;51.094;3.490;2022-10-19T07:19:46;10.20;99.90
56861;DHT22;42744;51.094;3.490;2022-10-19T07:22:12;10.20;99.90
56861;DHT22;42744;51.094;3.490;2022-10-19T07:24:38;10.30;99.90
56861;DHT22;42744;51.094;3.490;2022-10-19T07:27:04;10.30;99.90
56861;DHT22;42744;51.094;3.490;2022-10-19T07:29:30;10.40;99.90
56861;DHT22;42744;51.094;3.490;2022-10-19T07:31:56;10.40;99.90
56861;DHT22;42744;51.094;3.490;2022-10-19T07:34:22;10.40;99.90
56861;DHT22;42744;51.094;3.490;2022-10-19T07:36:48;10.50;99.90
56861;DHT22;42744;51.094;3.490;2022-10-19T07:39:15;10.50;99.90
56861;DHT22;42744;51.094;3.490;2022-10-19T07:41:44;10.60;99.90
56861;DHT22;42744;51.094;3.490;2022-10-19T07:44:10;10.60;99.90
56861;DHT22;42744;51.094;3.490;2022-10-19T07:46:37;10.60;99.90
56861;DHT22;42744;51.094;3.490;2022-10-19T07:49:11;10.70;99.90
56861;DHT22;42744;51.094;3.490;2022-10-19T07:51:38;10.80;99.90
56861;DHT22;42744;51.094;3.490;2022-10-19T07:54:04;10.80;99.90
56861;DHT22;42744;51.094;3.490;2022-10-19T07:56:31;10.80;99.90
56861;DHT22;42744;51.094;3.490;2022-10-19T07:58:58;10.80;99.90
56861;DHT22;42744;51.094;3.490;2022-10-19T08:01:30;10.90;99.90
56861;DHT22;42744;51.094;3.490;2022-10-19T08:03:58;10.90;99.90
56861;DHT22;42744;51.094;3.490;2022-10-19T08:06:25;10.90;99.90
56861;DHT22;42744;51.094;3.490;2022-10-19T08:08:52;10.90;99.90
56861;DHT22;42744;51.094;3.490;2022-10-19T08:13:48;10.90;99.90
56861;DHT22;42744;51.094;3.490;2022-10-19T08:16:25;10.90;99.90
56861;DHT22;42744;51.094;3.490;2022-10-19T08:18:56;11.00;99.90
56861;DHT22;42744;51.094;3.490;2022-10-19T08:21:22;11.00;99.90
56861;DHT22;42744;51.094;3.490;2022-10-19T08:23:48;11.10;99.90
56861;DHT22;42744;51.094;3.490;2022-10-19T08:26:14;11.10;99.90
56861;DHT22;42744;51.094;3.490;2022-10-19T08:28:40;11.20;99.90
56861;DHT22;42744;51.094;3.490;2022-10-19T08:31:18;11.20;99.90
56861;DHT22;42744;51.094;3.490;2022-10-19T08:33:49;11.30;99.90
56861;DHT22;42744;51.094;3.490;2022-10-19T08:36:15;11.30;99.90
56861;DHT22;42744;51.094;3.490;2022-10-19T08:38:41;11.40;99.90
56861;DHT22;42744;51.094;3.490;2022-10-19T08:41:20;11.40;99.90
56861;DHT22;42744;51.094;3.490;2022-10-19T08:47:02;11.60;99.90
56861;DHT22;42744;51.094;3.490;2022-10-19T08:49:32;11.60;99.90
56861;DHT22;42744;51.094;3.490;2022-10-19T08:52:00;11.70;99.90
56861;DHT22;42744;51.094;3.490;2022-10-19T08:54:49;11.80;99.90
56861;DHT22;42744;51.094;3.490;2022-10-19T09:00:02;11.90;99.90
56861;DHT22;42744;51.094;3.490;2022-10-19T09:08:08;12.30;99.90
56861;DHT22;42744;51.094;3.490;2022-10-19T09:10:43;12.40;99.90
56861;DHT22;42744;51.094;3.490;2022-10-19T09:13:32;12.50;99.90
56861;DHT22;42744;51.094;3.490;2022-10-19T09:15:59;12.60;99.90
56861;DHT22;42744;51.094;3.490;2022-10-19T09:18:28;12.70;99.90
56861;DHT22;42744;51.094;3.490;2022-10-19T09:24:10;12.90;99.90
56861;DHT22;42744;51.094;3.490;2022-10-19T09:26:59;13.10;99.90
56861;DHT22;42744;51.094;3.490;2022-10-19T09:32:04;13.30;99.90
56861;DHT22;42744;51.094;3.490;2022-10-19T09:34:36;13.40;99.90
56861;DHT22;42744;51.094;3.490;2022-10-19T09:37:02;13.50;99.90
56861;DHT22;42744;51.094;3.490;2022-10-19T09:39:29;13.60;99.90
56861;DHT22;42744;51.094;3.490;2022-10-19T09:41:58;13.70;99.90
56861;DHT22;42744;51.094;3.490;2022-10-19T09:44:26;13.80;99.90
56861;DHT22;42744;51.094;3.490;2022-10-19T09:49:44;13.90;99.90
56861;DHT22;42744;51.094;3.490;2022-10-19T09:57:30;14.20;99.90
56861;DHT22;42744;51.094;3.490;2022-10-19T09:59:56;14.30;99.90
56861;DHT22;42744;51.094;3.490;2022-10-19T10:02:32;14.40;99.90
56861;DHT22;42744;51.094;3.490;2022-10-19T10:05:05;14.50;99.90
56861;DHT22;42744;51.094;3.490;2022-10-19T10:07:35;14.70;99.90
56861;DHT22;42744;51.094;3.490;2022-10-19T10:10:19;14.80;99.90
56861;DHT22;42744;51.094;3.490;2022-10-19T10:12:45;14.90;99.90
56861;DHT22;42744;51.094;3.490;2022-10-19T10:15:24;15.00;99.90
56861;DHT22;42744;51.094;3.490;2022-10-19T10:17:51;15.10;99.90
56861;DHT22;42744;51.094;3.490;2022-10-19T10:20:29;15.30;99.90
56861;DHT22;42744;51.094;3.490;2022-10-19T10:22:58;15.30;99.90
56861;DHT22;42744;51.094;3.490;2022-10-19T10:25:30;15.40;99.90
56861;DHT22;42744;51.094;3.490;2022-10-19T10:28:01;15.40;99.90
56861;DHT22;42744;51.094;3.490;2022-10-19T10:30:33;15.50;99.90
56861;DHT22;42744;51.094;3.490;2022-10-19T10:32:59;15.40;99.90
56861;DHT22;42744;51.094;3.490;2022-10-19T10:35:35;15.40;99.90
56861;DHT22;42744;51.094;3.490;2022-10-19T10:38:13;15.50;99.90
56861;DHT22;42744;51.094;3.490;2022-10-19T10:43:36;15.60;99.90
56861;DHT22;42744;51.094;3.490;2022-10-19T10:46:18;15.70;99.90
56861;DHT22;42744;51.094;3.490;2022-10-19T10:49:02;15.70;99.90
56861;DHT22;42744;51.094;3.490;2022-10-19T10:51:33;15.70;99.90
56861;DHT22;42744;51.094;3.490;2022-10-19T10:56:43;15.70;99.90
56861;DHT22;42744;51.094;3.490;2022-10-19T10:59:17;15.90;99.90
56861;DHT22;42744;51.094;3.490;2022-10-19T11:02:07;16.00;99.90
56861;DHT22;42744;51.094;3.490;2022-10-19T11:04:40;16.10;99.90
56861;DHT22;42744;51.094;3.490;2022-10-19T11:07:17;16.10;99.90
56861;DHT22;42744;51.094;3.490;2022-10-19T11:10:32;16.20;99.90
56861;DHT22;42744;51.094;3.490;2022-10-19T11:12:40;16.30;99.90
56861;DHT22;42744;51.094;3.490;2022-10-19T11:17:53;16.30;99.90
56861;DHT22;42744;51.094;3.490;2022-10-19T11:20:22;16.20;99.90
56861;DHT22;42744;51.094;3.490;2022-10-19T11:23:00;16.30;99.90
56861;DHT22;42744;51.094;3.490;2022-10-19T11:31:24;16.70;99.90
56861;DHT22;42744;51.094;3.490;2022-10-19T11:36:37;17.10;99.90
56861;DHT22;42744;51.094;3.490;2022-10-19T11:39:29;17.30;99.90
56861;DHT22;42744;51.094;3.490;2022-10-19T11:44:53;17.50;99.90
56861;DHT22;42744;51.094;3.490;2022-10-19T11:50:08;17.90;99.90
56861;DHT22;42744;51.094;3.490;2022-10-19T11:55:23;18.10;99.90
56861;DHT22;42744;51.094;3.490;2022-10-19T12:09:19;18.70;99.90
56861;DHT22;42744;51.094;3.490;2022-10-19T12:11:50;18.90;99.90
56861;DHT22;42744;51.094;3.490;2022-10-19T12:14:24;18.80;99.90
56861;DHT22;42744;51.094;3.490;2022-10-19T12:16:58;18.70;99.90
56861;DHT22;42744;51.094;3.490;2022-10-19T12:19:30;18.80;99.90
56861;DHT22;42744;51.094;3.490;2022-10-19T12:22:01;18.70;99.90
56861;DHT22;42744;51.094;3.490;2022-10-19T12:24:29;18.80;99.90
56861;DHT22;42744;51.094;3.490;2022-10-19T12:26:56;18.90;99.90
56861;DHT22;42744;51.094;3.490;2022-10-19T12:29:25;18.90;99.90
56861;DHT22;42744;51.094;3.490;2022-10-19T12:31:52;18.90;99.90
56861;DHT22;42744;51.094;3.490;2022-10-19T12:39:42;19.20;99.90
56861;DHT22;42744;51.094;3.490;2022-10-19T12:56:12;19.70;99.90
56861;DHT22;42744;51.094;3.490;2022-10-19T13:01:42;19.40;99.90
56861;DHT22;42744;51.094;3.490;2022-10-19T13:04:29;19.40;99.90
56861;DHT22;42744;51.094;3.490;2022-10-19T13:09:42;19.30;99.90
56861;DHT22;42744;51.094;3.490;2022-10-19T13:14:53;19.10;99.90
56861;DHT22;42744;51.094;3.490;2022-10-19T13:22:50;18.60;99.90
56861;DHT22;42744;51.094;3.490;2022-10-19T13:25:40;18.50;99.90
56861;DHT22;42744;51.094;3.490;2022-10-19T13:38:46;18.30;99.90
56861;DHT22;42744;51.094;3.490;2022-10-19T13:41:47;18.30;99.90
56861;DHT22;42744;51.094;3.490;2022-10-19T14:00:56;18.50;99.90
56861;DHT22;42744;51.094;3.490;2022-10-19T14:06:28;18.30;99.90
56861;DHT22;42744;51.094;3.490;2022-10-19T14:11:45;18.20;99.90
56861;DHT22;42744;51.094;3.490;2022-10-19T14:14:19;18.20;99.90
56861;DHT22;42744;51.094;3.490;2022-10-19T14:16:54;18.10;99.90
56861;DHT22;42744;51.094;3.490;2022-10-19T14:19:24;18.00;99.90
56861;DHT22;42744;51.094;3.490;2022-10-19T14:21:57;17.80;99.90
56861;DHT22;42744;51.094;3.490;2022-10-19T14:24:33;17.80;99.90
56861;DHT22;42744;51.094;3.490;2022-10-19T14:27:03;17.70;99.90
56861;DHT22;42744;51.094;3.490;2022-10-19T14:29:34;17.60;99.90
56861;DHT22;42744;51.094;3.490;2022-10-19T14:32:02;17.50;99.90
56861;DHT22;42744;51.094;3.490;2022-10-19T14:34:28;17.50;99.90
56861;DHT22;42744;51.094;3.490;2022-10-19T14:36:55;17.50;99.90
56861;DHT22;42744;51.094;3.490;2022-10-19T14:39:39;17.50;99.90
56861;DHT22;42744;51.094;3.490;2022-10-19T14:42:08;17.40;99.90
56861;DHT22;42744;51.094;3.490;2022-10-19T14:44:42;17.30;99.90
56861;DHT22;42744;51.094;3.490;2022-10-19T14:47:21;17.20;99.90
56861;DHT22;42744;51.094;3.490;2022-10-19T14:49:48;17.20;99.90
56861;DHT22;42744;51.094;3.490;2022-10-19T14:52:21;17.20;99.90
56861;DHT22;42744;51.094;3.490;2022-10-19T14:54:50;17.10;99.90
56861;DHT22;42744;51.094;3.490;2022-10-19T14:57:22;17.10;99.90
56861;DHT22;42744;51.094;3.490;2022-10-19T15:00:19;17.20;99.90
56861;DHT22;42744;51.094;3.490;2022-10-19T15:02:57;17.30;99.90
56861;DHT22;42744;51.094;3.490;2022-10-19T15:05:27;17.30;99.90
56861;DHT22;42744;51.094;3.490;2022-10-19T15:07:54;17.30;99.90
56861;DHT22;42744;51.094;3.490;2022-10-19T15:10:35;17.30;99.90
56861;DHT22;42744;51.094;3.490;2022-10-19T15:13:05;17.20;99.90
56861;DHT22;42744;51.094;3.490;2022-10-19T15:15:33;17.10;99.90
56861;DHT22;42744;51.094;3.490;2022-10-19T15:20:36;17.00;99.90
56861;DHT22;42744;51.094;3.490;2022-10-19T15:25:58;16.80;99.90
56861;DHT22;42744;51.094;3.490;2022-10-19T15:28:38;16.70;99.90
56861;DHT22;42744;51.094;3.490;2022-10-19T15:31:12;16.60;99.90
56861;DHT22;42744;51.094;3.490;2022-10-19T15:33:42;16.50;99.90
56861;DHT22;42744;51.094;3.490;2022-10-19T15:36:10;16.40;99.90
56861;DHT22;42744;51.094;3.490;2022-10-19T15:39:02;16.30;99.90
56861;DHT22;42744;51.094;3.490;2022-10-19T15:41:31;16.30;99.90
56861;DHT22;42744;51.094;3.490;2022-10-19T15:43:59;16.20;99.90
56861;DHT22;42744;51.094;3.490;2022-10-19T15:46:28;16.10;99.90
56861;DHT22;42744;51.094;3.490;2022-10-19T15:51:49;16.00;99.90
56861;DHT22;42744;51.094;3.490;2022-10-19T15:54:17;15.90;99.90
56861;DHT22;42744;51.094;3.490;2022-10-19T15:56:45;15.80;99.90
56861;DHT22;42744;51.094;3.490;2022-10-19T15:59:22;15.80;99.90
56861;DHT22;42744;51.094;3.490;2022-10-19T16:01:48;15.70;99.90
56861;DHT22;42744;51.094;3.490;2022-10-19T16:04:16;15.70;99.90
56861;DHT22;42744;51.094;3.490;2022-10-19T16:06:44;15.60;99.90
56861;DHT22;42744;51.094;3.490;2022-10-19T16:09:17;15.60;99.90
56861;DHT22;42744;51.094;3.490;2022-10-19T16:11:44;15.50;99.90
56861;DHT22;42744;51.094;3.490;2022-10-19T16:14:10;15.50;99.90
56861;DHT22;42744;51.094;3.490;2022-10-19T16:16:36;15.50;99.90
56861;DHT22;42744;51.094;3.490;2022-10-19T16:19:02;15.40;99.90
56861;DHT22;42744;51.094;3.490;2022-10-19T16:21:34;15.30;99.90
56861;DHT22;42744;51.094;3.490;2022-10-19T16:24:00;15.30;99.90
56861;DHT22;42744;51.094;3.490;2022-10-19T16:26:27;15.20;99.90
56861;DHT22;42744;51.094;3.490;2022-10-19T16:28:55;15.10;99.90
56861;DHT22;42744;51.094;3.490;2022-10-19T16:31:22;15.10;99.90
56861;DHT22;42744;51.094;3.490;2022-10-19T16:33:48;15.00;99.90
56861;DHT22;42744;51.094;3.490;2022-10-19T16:36:14;15.00;99.90
56861;DHT22;42744;51.094;3.490;2022-10-19T16:38:42;14.90;99.90
56861;DHT22;42744;51.094;3.490;2022-10-19T16:41:10;14.80;99.90
56861;DHT22;42744;51.094;3.490;2022-10-19T16:43:36;14.70;99.90
56861;DHT22;42744;51.094;3.490;2022-10-19T16:46:03;14.70;99.90
56861;DHT22;42744;51.094;3.490;2022-10-19T16:48:30;14.60;99.90
56861;DHT22;42744;51.094;3.490;2022-10-19T16:53:36;14.60;99.90
56861;DHT22;42744;51.094;3.490;2022-10-19T16:56:08;14.50;99.90
56861;DHT22;42744;51.094;3.490;2022-10-19T16:58:35;14.50;99.90
56861;DHT22;42744;51.094;3.490;2022-10-19T17:01:08;14.50;99.90
56861;DHT22;42744;51.094;3.490;2022-10-19T17:03:35;14.40;99.90
56861;DHT22;42744;51.094;3.490;2022-10-19T17:06:05;14.40;99.90
56861;DHT22;42744;51.094;3.490;2022-10-19T17:08:32;14.30;99.90
56861;DHT22;42744;51.094;3.490;2022-10-19T17:11:49;14.30;99.90
56861;DHT22;42744;51.094;3.490;2022-10-19T17:13:58;14.30;99.90
56861;DHT22;42744;51.094;3.490;2022-10-19T17:16:27;14.20;99.90
56861;DHT22;42744;51.094;3.490;2022-10-19T17:18:54;14.20;99.90
56861;DHT22;42744;51.094;3.490;2022-10-19T17:21:23;14.20;99.90
56861;DHT22;42744;51.094;3.490;2022-10-19T17:23:52;14.10;99.90
56861;DHT22;42744;51.094;3.490;2022-10-19T17:26:18;14.10;99.90
56861;DHT22;42744;51.094;3.490;2022-10-19T17:28:48;14.10;99.90
56861;DHT22;42744;51.094;3.490;2022-10-19T17:31:15;14.00;99.90
56861;DHT22;42744;51.094;3.490;2022-10-19T17:33:40;14.00;99.90
56861;DHT22;42744;51.094;3.490;2022-10-19T17:38:35;13.90;99.90
56861;DHT22;42744;51.094;3.490;2022-10-19T17:41:08;13.90;99.90
56861;DHT22;42744;51.094;3.490;2022-10-19T17:43:36;13.90;99.90
56861;DHT22;42744;51.094;3.490;2022-10-19T17:46:05;13.90;99.90
56861;DHT22;42744;51.094;3.490;2022-10-19T17:48:32;13.80;99.90
56861;DHT22;42744;51.094;3.490;2022-10-19T17:51:14;13.80;99.90
56861;DHT22;42744;51.094;3.490;2022-10-19T17:53:44;13.80;99.90
56861;DHT22;42744;51.094;3.490;2022-10-19T17:56:14;13.80;99.90
56861;DHT22;42744;51.094;3.490;2022-10-19T17:58:40;13.70;99.90
56861;DHT22;42744;51.094;3.490;2022-10-19T18:01:07;13.70;99.90
56861;DHT22;42744;51.094;3.490;2022-10-19T18:03:34;13.70;99.90
56861;DHT22;42744;51.094;3.490;2022-10-19T18:08:33;13.60;99.90
56861;DHT22;42744;51.094;3.490;2022-10-19T18:11:02;13.60;99.90
56861;DHT22;42744;51.094;3.490;2022-10-19T18:13:28;13.60;99.90
56861;DHT22;42744;51.094;3.490;2022-10-19T18:16:09;13.60;99.90
56861;DHT22;42744;51.094;3.490;2022-10-19T18:18:37;13.60;99.90
56861;DHT22;42744;51.094;3.490;2022-10-19T18:21:08;13.60;99.90
56861;DHT22;42744;51.094;3.490;2022-10-19T18:23:34;13.50;99.90
56861;DHT22;42744;51.094;3.490;2022-10-19T18:26:13;13.50;99.90
56861;DHT22;42744;51.094;3.490;2022-10-19T18:28:40;13.50;99.90